Terminal Aerodrome Forecast
Issued by NWS Quad Cities IA IL

Home | Current Version | Previous Version | Text Only | Print | Product List | Glossary On
Versions: 1 2 3 4 5 6 7 8 9 10 11 12 13
000
FTUS43 KDVN 200532
TAFMLI
TAF
KMLI 200532Z 2006/2106 13006KT P6SM BKN200
     FM201200 14008KT 6SM BR BKN200
     FM201600 15012KT P6SM BKN040
     FM202300 17013KT 4SM SHRA VCTS BKN035CB
     FM210300 21010KT 5SM BR BKN025=

USA.gov is the U.S. government's official web portal to all federal, state and local government web resources and services.